PWSweather.com
Personal Weather Stations
Station Observations
SUBOTICARS
SuboticaYU

SuboticaYU

Lat: 46.1296717, Lon: 19.641551

Elevation: 361

Station Type: Nexus

http://sumeteo.info

High Low Average
Temperature 40.1°F4.5°C 33.1°F0.6°C 37.5°F3.1°C
Dew Point 33.6°F0.9°C 8.4°F-13.1°C 21.9°F-5.6°C
Winds 8.1 mph 13.0 kmh Calm Calm 4.0 mph ESE6.4 kmh ESE
Wind Gusts 13.8 mph22.2 kmh -- 5.0 mph8.0 kmh
Humidity 81% 27% 57%
Pressure 30.40 in1029.5 mb 30.31 in1026.4 mb -
Precipitation 0.03 in0.8 mm - -
Hour Temp Dew Point Humidity Winds Wind Gusts Pressure Precip Precip Rate Daily Precip Total
12:00 AM 40.1°F4.5°C 9.6°F-12.4°C 28% 1.2 mph E1.9 kmh E 1.2 mph1.9 kmh 30.31 in1026.4 mb - 0.00 in0.0 mm 0.00 in0.0 mm
12:10 AM 39.9°F4.4°C 9.4°F-12.6°C 28% 1.2 mph ESE1.9 kmh ESE -- 30.32 in1026.8 mb - 0.00 in0.0 mm 0.00 in0.0 mm
12:15 AM 39.9°F4.4°C 9.4°F-12.6°C 28% 1.2 mph ESE1.9 kmh ESE 1.2 mph1.9 kmh 30.32 in1026.8 mb - 0.00 in0.0 mm 0.00 in0.0 mm
12:20 AM 39.9°F4.4°C 9.4°F-12.6°C 28% Calm Calm -- 30.32 in1026.8 mb - 0.00 in0.0 mm 0.00 in0.0 mm
12:25 AM 39.9°F4.4°C 9.4°F-12.6°C 28% Calm Calm 1.2 mph1.9 kmh 30.32 in1026.8 mb - 0.00 in0.0 mm 0.00 in0.0 mm
12:30 AM 39.9°F4.4°C 9.4°F-12.6°C 28% Calm Calm 3.5 mph5.6 kmh 30.32 in1026.8 mb - 0.00 in0.0 mm 0.00 in0.0 mm
12:35 AM 39.7°F4.3°C 9.2°F-12.7°C 28% Calm Calm 1.2 mph1.9 kmh 30.32 in1026.8 mb - 0.00 in0.0 mm 0.00 in0.0 mm
12:40 AM 39.7°F4.3°C 9.2°F-12.7°C 28% Calm Calm 1.2 mph1.9 kmh 30.32 in1026.8 mb - 0.00 in0.0 mm 0.00 in0.0 mm
12:45 AM 39.7°F4.3°C 9.2°F-12.7°C 28% 1.2 mph NNE1.9 kmh NNE 1.2 mph1.9 kmh 30.32 in1026.8 mb - 0.00 in0.0 mm 0.00 in0.0 mm
12:50 AM 39.7°F4.3°C 9.2°F-12.7°C 28% 1.2 mph NE1.9 kmh NE 2.3 mph3.7 kmh 30.32 in1026.8 mb - 0.00 in0.0 mm 0.00 in0.0 mm
12:55 AM 39.7°F4.3°C 9.2°F-12.7°C 28% 1.2 mph ENE1.9 kmh ENE 2.3 mph3.7 kmh 30.32 in1026.8 mb - 0.00 in0.0 mm 0.00 in0.0 mm
01:00 AM 39.7°F4.3°C 8.4°F-13.1°C 27% 1.2 mph NE1.9 kmh NE 2.3 mph3.7 kmh 30.32 in1026.8 mb - 0.00 in0.0 mm 0.00 in0.0 mm
01:10 AM 39.7°F4.3°C 8.4°F-13.1°C 27% 1.2 mph ESE1.9 kmh ESE 3.5 mph5.6 kmh 30.32 in1026.8 mb - 0.00 in0.0 mm 0.00 in0.0 mm
01:15 AM 39.7°F4.3°C 8.4°F-13.1°C 27% 1.2 mph NNE1.9 kmh NNE 2.3 mph3.7 kmh 30.32 in1026.8 mb - 0.00 in0.0 mm 0.00 in0.0 mm
01:20 AM 39.7°F4.3°C 8.4°F-13.1°C 27% 1.2 mph E1.9 kmh E 2.3 mph3.7 kmh 30.32 in1026.8 mb - 0.00 in0.0 mm 0.00 in0.0 mm
01:25 AM 39.7°F4.3°C 8.4°F-13.1°C 27% 1.2 mph ENE1.9 kmh ENE -- 30.32 in1026.8 mb - 0.00 in0.0 mm 0.00 in0.0 mm
01:30 AM 39.7°F4.3°C 8.4°F-13.1°C 27% 1.2 mph NNE1.9 kmh NNE 2.3 mph3.7 kmh 30.33 in1027.1 mb - 0.00 in0.0 mm 0.00 in0.0 mm
01:35 AM 39.7°F4.3°C 8.4°F-13.1°C 27% 1.2 mph ENE1.9 kmh ENE 1.2 mph1.9 kmh 30.33 in1027.1 mb - 0.00 in0.0 mm 0.00 in0.0 mm
01:40 AM 39.6°F4.2°C 9.1°F-12.7°C 28% 1.2 mph ENE1.9 kmh ENE 3.5 mph5.6 kmh 30.33 in1027.1 mb - 0.00 in0.0 mm 0.00 in0.0 mm
01:45 AM 39.6°F4.2°C 9.1°F-12.7°C 28% 2.3 mph ESE3.7 kmh ESE 2.3 mph3.7 kmh 30.33 in1027.1 mb - 0.00 in0.0 mm 0.00 in0.0 mm
01:50 AM 39.4°F4.1°C 9.7°F-12.4°C 29% 1.2 mph E1.9 kmh E 2.3 mph3.7 kmh 30.33 in1027.1 mb - 0.00 in0.0 mm 0.00 in0.0 mm
01:55 AM 39.4°F4.1°C 10.5°F-11.9°C 30% 1.2 mph NNE1.9 kmh NNE 3.5 mph5.6 kmh 30.33 in1027.1 mb - 0.00 in0.0 mm 0.00 in0.0 mm
02:00 AM 39.4°F4.1°C 11.2°F-11.6°C 31% 1.2 mph ENE1.9 kmh ENE 1.2 mph1.9 kmh 30.33 in1027.1 mb - 0.00 in0.0 mm 0.00 in0.0 mm
02:10 AM 39.4°F4.1°C 11.2°F-11.6°C 31% Calm Calm 2.3 mph3.7 kmh 30.34 in1027.4 mb - 0.00 in0.0 mm 0.00 in0.0 mm
02:15 AM 39.4°F4.1°C 11.9°F-11.2°C 32% Calm Calm 1.2 mph1.9 kmh 30.34 in1027.4 mb - 0.00 in0.0 mm 0.00 in0.0 mm
02:20 AM 39.2°F4.0°C 11.8°F-11.2°C 32% 1.2 mph ESE1.9 kmh ESE 1.2 mph1.9 kmh 30.34 in1027.4 mb - 0.00 in0.0 mm 0.00 in0.0 mm
02:25 AM 39.2°F4.0°C 11.8°F-11.2°C 32% Calm Calm 2.3 mph3.7 kmh 30.34 in1027.4 mb - 0.00 in0.0 mm 0.00 in0.0 mm
02:30 AM 39.2°F4.0°C 11.8°F-11.2°C 32% Calm Calm 1.2 mph1.9 kmh 30.33 in1027.1 mb - 0.00 in0.0 mm 0.00 in0.0 mm
02:35 AM 39.2°F4.0°C 11.8°F-11.2°C 32% Calm Calm -- 30.33 in1027.1 mb - 0.00 in0.0 mm 0.00 in0.0 mm
02:40 AM 39.0°F3.9°C 12.3°F-10.9°C 33% Calm Calm 2.3 mph3.7 kmh 30.33 in1027.1 mb - 0.00 in0.0 mm 0.00 in0.0 mm
02:45 AM 39.0°F3.9°C 12.3°F-10.9°C 33% 1.2 mph NE1.9 kmh NE 2.3 mph3.7 kmh 30.33 in1027.1 mb - 0.00 in0.0 mm 0.00 in0.0 mm
02:50 AM 39.0°F3.9°C 13.0°F-10.6°C 34% 2.3 mph ENE3.7 kmh ENE 3.5 mph5.6 kmh 30.32 in1026.8 mb - 0.00 in0.0 mm 0.00 in0.0 mm
02:55 AM 39.0°F3.9°C 13.0°F-10.6°C 34% 2.3 mph NE3.7 kmh NE 3.5 mph5.6 kmh 30.32 in1026.8 mb - 0.00 in0.0 mm 0.00 in0.0 mm
03:00 AM 39.0°F3.9°C 13.0°F-10.6°C 34% 2.3 mph NE3.7 kmh NE 3.5 mph5.6 kmh 30.32 in1026.8 mb - 0.00 in0.0 mm 0.00 in0.0 mm
03:10 AM 39.0°F3.9°C 13.6°F-10.2°C 35% 2.3 mph NE3.7 kmh NE 2.3 mph3.7 kmh 30.33 in1027.1 mb - 0.00 in0.0 mm 0.00 in0.0 mm
03:15 AM 38.8°F3.8°C 13.5°F-10.3°C 35% 2.3 mph ESE3.7 kmh ESE 2.3 mph3.7 kmh 30.33 in1027.1 mb - 0.00 in0.0 mm 0.00 in0.0 mm
03:20 AM 38.8°F3.8°C 13.5°F-10.3°C 35% 1.2 mph ENE1.9 kmh ENE 2.3 mph3.7 kmh 30.33 in1027.1 mb - 0.00 in0.0 mm 0.00 in0.0 mm
03:25 AM 38.8°F3.8°C 13.5°F-10.3°C 35% 1.2 mph ENE1.9 kmh ENE 2.3 mph3.7 kmh 30.33 in1027.1 mb - 0.00 in0.0 mm 0.00 in0.0 mm
03:30 AM 38.7°F3.7°C 14.0°F-10.0°C 36% 1.2 mph ENE1.9 kmh ENE 2.3 mph3.7 kmh 30.32 in1026.8 mb - 0.00 in0.0 mm 0.00 in0.0 mm
03:35 AM 38.7°F3.7°C 14.0°F-10.0°C 36% 1.2 mph E1.9 kmh E 2.3 mph3.7 kmh 30.32 in1026.8 mb - 0.00 in0.0 mm 0.00 in0.0 mm
03:40 AM 38.7°F3.7°C 14.0°F-10.0°C 36% 1.2 mph E1.9 kmh E 2.3 mph3.7 kmh 30.32 in1026.8 mb - 0.00 in0.0 mm 0.00 in0.0 mm
03:45 AM 38.7°F3.7°C 14.0°F-10.0°C 36% 1.2 mph ENE1.9 kmh ENE 2.3 mph3.7 kmh 30.32 in1026.8 mb - 0.00 in0.0 mm 0.00 in0.0 mm
03:50 AM 38.7°F3.7°C 14.0°F-10.0°C 36% 1.2 mph NE1.9 kmh NE 2.3 mph3.7 kmh 30.32 in1026.8 mb - 0.00 in0.0 mm 0.00 in0.0 mm
03:55 AM 38.7°F3.7°C 14.0°F-10.0°C 36% 1.2 mph ENE1.9 kmh ENE 2.3 mph3.7 kmh 30.32 in1026.8 mb - 0.00 in0.0 mm 0.00 in0.0 mm
04:00 AM 38.7°F3.7°C 14.0°F-10.0°C 36% 1.2 mph NE1.9 kmh NE 3.5 mph5.6 kmh 30.32 in1026.8 mb - 0.00 in0.0 mm 0.00 in0.0 mm
04:10 AM 38.7°F3.7°C 14.0°F-10.0°C 36% 1.2 mph E1.9 kmh E 2.3 mph3.7 kmh 30.32 in1026.8 mb - 0.00 in0.0 mm 0.00 in0.0 mm
04:15 AM 38.7°F3.7°C 14.6°F-9.7°C 37% 1.2 mph E1.9 kmh E 1.2 mph1.9 kmh 30.32 in1026.8 mb - 0.00 in0.0 mm 0.00 in0.0 mm
04:20 AM 38.7°F3.7°C 14.6°F-9.7°C 37% 1.2 mph SE1.9 kmh SE 1.2 mph1.9 kmh 30.32 in1026.8 mb - 0.00 in0.0 mm 0.00 in0.0 mm
04:25 AM 38.5°F3.6°C 14.4°F-9.8°C 37% 1.2 mph E1.9 kmh E 2.3 mph3.7 kmh 30.32 in1026.8 mb - 0.00 in0.0 mm 0.00 in0.0 mm
04:30 AM 38.6°F3.7°C 14.5°F-9.7°C 37% 1.2 mph E1.9 kmh E 2.3 mph3.7 kmh 30.33 in1027.1 mb - 0.00 in0.0 mm 0.00 in0.0 mm
04:35 AM 38.5°F3.6°C 14.4°F-9.8°C 37% 1.2 mph ENE1.9 kmh ENE 2.3 mph3.7 kmh 30.33 in1027.1 mb - 0.00 in0.0 mm 0.00 in0.0 mm
04:40 AM 38.5°F3.6°C 14.4°F-9.8°C 37% 1.2 mph E1.9 kmh E 2.3 mph3.7 kmh 30.33 in1027.1 mb - 0.00 in0.0 mm 0.00 in0.0 mm
04:45 AM 38.5°F3.6°C 15.0°F-9.4°C 38% 1.2 mph ESE1.9 kmh ESE 3.5 mph5.6 kmh 30.33 in1027.1 mb - 0.00 in0.0 mm 0.00 in0.0 mm
04:50 AM 38.5°F3.6°C 14.4°F-9.8°C 37% 1.2 mph NE1.9 kmh NE 1.2 mph1.9 kmh 30.34 in1027.4 mb - 0.00 in0.0 mm 0.00 in0.0 mm
04:55 AM 38.5°F3.6°C 15.0°F-9.4°C 38% 1.2 mph NE1.9 kmh NE -- 30.34 in1027.4 mb - 0.00 in0.0 mm 0.00 in0.0 mm
05:00 AM 38.5°F3.6°C 15.0°F-9.4°C 38% 1.2 mph ENE1.9 kmh ENE 2.3 mph3.7 kmh 30.34 in1027.4 mb - 0.00 in0.0 mm 0.00 in0.0 mm
05:10 AM 38.3°F3.5°C 14.9°F-9.5°C 38% 1.2 mph E1.9 kmh E 2.3 mph3.7 kmh 30.32 in1026.8 mb - 0.00 in0.0 mm 0.00 in0.0 mm
05:15 AM 38.3°F3.5°C 14.9°F-9.5°C 38% 1.2 mph ESE1.9 kmh ESE 1.2 mph1.9 kmh 30.32 in1026.8 mb - 0.00 in0.0 mm 0.00 in0.0 mm
05:20 AM 38.3°F3.5°C 14.9°F-9.5°C 38% 1.2 mph ENE1.9 kmh ENE 2.3 mph3.7 kmh 30.32 in1026.8 mb - 0.00 in0.0 mm 0.00 in0.0 mm
05:25 AM 38.3°F3.5°C 14.9°F-9.5°C 38% 1.2 mph ENE1.9 kmh ENE 2.3 mph3.7 kmh 30.32 in1026.8 mb - 0.00 in0.0 mm 0.00 in0.0 mm
05:30 AM 38.3°F3.5°C 14.9°F-9.5°C 38% 1.2 mph ENE1.9 kmh ENE 2.3 mph3.7 kmh 30.33 in1027.1 mb - 0.00 in0.0 mm 0.00 in0.0 mm
05:35 AM 38.3°F3.5°C 15.5°F-9.2°C 39% Calm Calm -- 30.33 in1027.1 mb - 0.00 in0.0 mm 0.00 in0.0 mm
05:40 AM 38.1°F3.4°C 15.3°F-9.3°C 39% 1.2 mph E1.9 kmh E 1.2 mph1.9 kmh 30.33 in1027.1 mb - 0.00 in0.0 mm 0.00 in0.0 mm
05:45 AM 38.1°F3.4°C 15.3°F-9.3°C 39% 1.2 mph NE1.9 kmh NE -- 30.33 in1027.1 mb - 0.00 in0.0 mm 0.00 in0.0 mm
05:50 AM 38.1°F3.4°C 15.3°F-9.3°C 39% 1.2 mph NE1.9 kmh NE 1.2 mph1.9 kmh 30.32 in1026.8 mb - 0.00 in0.0 mm 0.00 in0.0 mm
05:55 AM 38.1°F3.4°C 15.3°F-9.3°C 39% 1.2 mph ENE1.9 kmh ENE 1.2 mph1.9 kmh 30.32 in1026.8 mb - 0.00 in0.0 mm 0.00 in0.0 mm
06:00 AM 38.1°F3.4°C 15.3°F-9.3°C 39% 1.2 mph NE1.9 kmh NE 1.2 mph1.9 kmh 30.32 in1026.8 mb - 0.00 in0.0 mm 0.00 in0.0 mm
06:10 AM 38.1°F3.4°C 15.3°F-9.3°C 39% 1.2 mph NE1.9 kmh NE 3.5 mph5.6 kmh 30.33 in1027.1 mb - 0.00 in0.0 mm 0.00 in0.0 mm
06:15 AM 38.1°F3.4°C 15.3°F-9.3°C 39% 1.2 mph ENE1.9 kmh ENE 1.2 mph1.9 kmh 30.33 in1027.1 mb - 0.00 in0.0 mm 0.00 in0.0 mm
06:20 AM 37.9°F3.3°C 15.1°F-9.4°C 39% 2.3 mph ENE3.7 kmh ENE 3.5 mph5.6 kmh 30.33 in1027.1 mb - 0.01 in0.3 mm 0.01 in0.3 mm
06:25 AM 37.9°F3.3°C 15.1°F-9.4°C 39% 2.3 mph ENE3.7 kmh ENE 2.3 mph3.7 kmh 30.33 in1027.1 mb - 0.00 in0.0 mm 0.01 in0.3 mm
06:30 AM 37.9°F3.3°C 15.7°F-9.1°C 40% 1.2 mph NE1.9 kmh NE 2.3 mph3.7 kmh 30.34 in1027.4 mb - 0.00 in0.0 mm 0.01 in0.3 mm
06:35 AM 37.9°F3.3°C 15.7°F-9.1°C 40% 1.2 mph E1.9 kmh E 2.3 mph3.7 kmh 30.34 in1027.4 mb - 0.00 in0.0 mm 0.01 in0.3 mm
06:40 AM 37.9°F3.3°C 15.7°F-9.1°C 40% 1.2 mph ENE1.9 kmh ENE 2.3 mph3.7 kmh 30.34 in1027.4 mb - 0.00 in0.0 mm 0.01 in0.3 mm
06:45 AM 37.8°F3.2°C 15.6°F-9.1°C 40% 1.2 mph E1.9 kmh E 1.2 mph1.9 kmh 30.34 in1027.4 mb - 0.00 in0.0 mm 0.01 in0.3 mm
06:50 AM 37.8°F3.2°C 15.6°F-9.1°C 40% 1.2 mph E1.9 kmh E 3.5 mph5.6 kmh 30.34 in1027.4 mb - 0.00 in0.0 mm 0.01 in0.3 mm
06:55 AM 37.6°F3.1°C 15.4°F-9.2°C 40% 1.2 mph NNE1.9 kmh NNE -- 30.34 in1027.4 mb - 0.00 in0.0 mm 0.01 in0.3 mm
07:00 AM 37.6°F3.1°C 15.4°F-9.2°C 40% 1.2 mph SE1.9 kmh SE 2.3 mph3.7 kmh 30.34 in1027.4 mb - 0.00 in0.0 mm 0.01 in0.3 mm
07:10 AM 37.6°F3.1°C 15.4°F-9.2°C 40% 1.2 mph ENE1.9 kmh ENE 3.5 mph5.6 kmh 30.34 in1027.4 mb - 0.01 in0.3 mm 0.01 in0.3 mm
07:15 AM 37.6°F3.1°C 14.8°F-9.6°C 39% 1.2 mph ENE1.9 kmh ENE 3.5 mph5.6 kmh 30.34 in1027.4 mb - 0.00 in0.0 mm 0.01 in0.3 mm
07:20 AM 37.4°F3.0°C 14.7°F-9.6°C 39% 1.2 mph ENE1.9 kmh ENE -- 30.34 in1027.4 mb - 0.00 in0.0 mm 0.01 in0.3 mm
07:25 AM 37.4°F3.0°C 14.7°F-9.6°C 39% 1.2 mph NE1.9 kmh NE 3.5 mph5.6 kmh 30.34 in1027.4 mb - 0.00 in0.0 mm 0.01 in0.3 mm
07:30 AM 37.4°F3.0°C 14.7°F-9.6°C 39% 1.2 mph NE1.9 kmh NE 1.2 mph1.9 kmh 30.36 in1028.1 mb - 0.00 in0.0 mm 0.01 in0.3 mm
07:35 AM 37.2°F2.9°C 14.5°F-9.7°C 39% 1.2 mph E1.9 kmh E 2.3 mph3.7 kmh 30.36 in1028.1 mb - 0.00 in0.0 mm 0.01 in0.3 mm
07:40 AM 37.2°F2.9°C 14.5°F-9.7°C 39% 1.2 mph E1.9 kmh E 2.3 mph3.7 kmh 30.36 in1028.1 mb - 0.00 in0.0 mm 0.01 in0.3 mm
07:45 AM 37.2°F2.9°C 14.5°F-9.7°C 39% 1.2 mph NNE1.9 kmh NNE 1.2 mph1.9 kmh 30.36 in1028.1 mb - 0.00 in0.0 mm 0.01 in0.3 mm
07:50 AM 37.2°F2.9°C 13.9°F-10.1°C 38% 1.2 mph ENE1.9 kmh ENE 2.3 mph3.7 kmh 30.36 in1028.1 mb - 0.00 in0.0 mm 0.01 in0.3 mm
07:55 AM 37.2°F2.9°C 13.9°F-10.1°C 38% 1.2 mph ENE1.9 kmh ENE -- 30.36 in1028.1 mb - 0.00 in0.0 mm 0.01 in0.3 mm
08:00 AM 37.2°F2.9°C 13.9°F-10.1°C 38% 1.2 mph E1.9 kmh E 2.3 mph3.7 kmh 30.36 in1028.1 mb - 0.00 in0.0 mm 0.01 in0.3 mm
08:10 AM 37.2°F2.9°C 13.3°F-10.4°C 37% 1.2 mph ENE1.9 kmh ENE 2.3 mph3.7 kmh 30.37 in1028.4 mb - 0.00 in0.0 mm 0.01 in0.3 mm
08:15 AM 37.2°F2.9°C 13.3°F-10.4°C 37% 1.2 mph ENE1.9 kmh ENE 1.2 mph1.9 kmh 30.37 in1028.4 mb - 0.00 in0.0 mm 0.01 in0.3 mm
08:20 AM 37.2°F2.9°C 13.3°F-10.4°C 37% 1.2 mph E1.9 kmh E 3.5 mph5.6 kmh 30.37 in1028.4 mb - 0.00 in0.0 mm 0.01 in0.3 mm
08:25 AM 37.2°F2.9°C 12.7°F-10.7°C 36% 1.2 mph NE1.9 kmh NE 3.5 mph5.6 kmh 30.37 in1028.4 mb - 0.00 in0.0 mm 0.01 in0.3 mm
08:30 AM 37.2°F2.9°C 12.7°F-10.7°C 36% 1.2 mph NNE1.9 kmh NNE 2.3 mph3.7 kmh 30.37 in1028.4 mb - 0.00 in0.0 mm 0.01 in0.3 mm
08:35 AM 37.2°F2.9°C 12.0°F-11.1°C 35% 1.2 mph ENE1.9 kmh ENE 1.2 mph1.9 kmh 30.37 in1028.4 mb - 0.00 in0.0 mm 0.01 in0.3 mm
08:40 AM 37.4°F3.0°C 12.2°F-11.0°C 35% 1.2 mph ENE1.9 kmh ENE 1.2 mph1.9 kmh 30.37 in1028.4 mb - 0.00 in0.0 mm 0.01 in0.3 mm
08:45 AM 37.2°F2.9°C 12.0°F-11.1°C 35% 1.2 mph NE1.9 kmh NE 2.3 mph3.7 kmh 30.37 in1028.4 mb - 0.00 in0.0 mm 0.01 in0.3 mm
08:50 AM 37.4°F3.0°C 12.2°F-11.0°C 35% 1.2 mph E1.9 kmh E 2.3 mph3.7 kmh 30.37 in1028.4 mb - 0.00 in0.0 mm 0.01 in0.3 mm
08:55 AM 37.4°F3.0°C 11.5°F-11.4°C 34% 1.2 mph NNE1.9 kmh NNE 3.5 mph5.6 kmh 30.37 in1028.4 mb - 0.00 in0.0 mm 0.01 in0.3 mm
09:00 AM 37.4°F3.0°C 11.6°F-11.3°C 34% 1.2 mph ENE1.9 kmh ENE 2.3 mph3.7 kmh 30.37 in1028.4 mb - 0.00 in0.0 mm 0.01 in0.3 mm
09:10 AM 37.4°F3.0°C 11.5°F-11.4°C 34% 1.2 mph NE1.9 kmh NE 2.3 mph3.7 kmh 30.36 in1028.1 mb - 0.00 in0.0 mm 0.01 in0.3 mm
09:15 AM 37.4°F3.0°C 11.5°F-11.4°C 34% 1.2 mph ENE1.9 kmh ENE 3.5 mph5.6 kmh 30.36 in1028.1 mb - 0.00 in0.0 mm 0.01 in0.3 mm
09:20 AM 37.4°F3.0°C 11.5°F-11.4°C 34% 1.2 mph SE1.9 kmh SE 2.3 mph3.7 kmh 30.36 in1028.1 mb - 0.00 in0.0 mm 0.01 in0.3 mm
09:25 AM 37.4°F3.0°C 11.5°F-11.4°C 34% 1.2 mph ENE1.9 kmh ENE 2.3 mph3.7 kmh 30.36 in1028.1 mb - 0.00 in0.0 mm 0.01 in0.3 mm
09:30 AM 37.6°F3.1°C 11.7°F-11.3°C 34% 2.3 mph ENE3.7 kmh ENE 2.3 mph3.7 kmh 30.36 in1028.1 mb - 0.00 in0.0 mm 0.01 in0.3 mm
09:35 AM 37.4°F3.0°C 11.5°F-11.4°C 34% 2.3 mph NE3.7 kmh NE 1.2 mph1.9 kmh 30.36 in1028.1 mb - 0.00 in0.0 mm 0.01 in0.3 mm
09:40 AM 37.6°F3.1°C 11.7°F-11.3°C 34% 1.2 mph ENE1.9 kmh ENE 2.3 mph3.7 kmh 30.36 in1028.1 mb - 0.00 in0.0 mm 0.01 in0.3 mm
09:45 AM 37.4°F3.0°C 11.5°F-11.4°C 34% 1.2 mph ENE1.9 kmh ENE 2.3 mph3.7 kmh 30.36 in1028.1 mb - 0.00 in0.0 mm 0.01 in0.3 mm
09:50 AM 37.6°F3.1°C 11.7°F-11.3°C 34% 1.2 mph ENE1.9 kmh ENE 2.3 mph3.7 kmh 30.37 in1028.4 mb - 0.00 in0.0 mm 0.01 in0.3 mm
09:55 AM 37.6°F3.1°C 11.7°F-11.3°C 34% 1.2 mph ENE1.9 kmh ENE 1.2 mph1.9 kmh 30.37 in1028.4 mb - 0.00 in0.0 mm 0.01 in0.3 mm
10:00 AM 37.4°F3.0°C 11.5°F-11.4°C 34% 1.2 mph NE1.9 kmh NE 2.3 mph3.7 kmh 30.37 in1028.4 mb - 0.00 in0.0 mm 0.01 in0.3 mm
10:10 AM 37.4°F3.0°C 11.6°F-11.3°C 34% Calm Calm 1.2 mph1.9 kmh 30.37 in1028.4 mb - 0.00 in0.0 mm 0.01 in0.3 mm
10:15 AM 37.6°F3.1°C 11.7°F-11.3°C 34% Calm Calm 1.2 mph1.9 kmh 30.37 in1028.4 mb - 0.00 in0.0 mm 0.01 in0.3 mm
10:20 AM 37.6°F3.1°C 11.7°F-11.3°C 34% Calm Calm -- 30.37 in1028.4 mb - 0.00 in0.0 mm 0.01 in0.3 mm
10:25 AM 37.6°F3.1°C 11.7°F-11.3°C 34% Calm Calm 1.2 mph1.9 kmh 30.37 in1028.4 mb - 0.00 in0.0 mm 0.01 in0.3 mm
10:30 AM 37.6°F3.1°C 11.0°F-11.7°C 33% Calm Calm -- 30.38 in1028.8 mb - 0.00 in0.0 mm 0.01 in0.3 mm
10:35 AM 37.8°F3.2°C 11.2°F-11.6°C 33% 1.2 mph SE1.9 kmh SE 3.5 mph5.6 kmh 30.38 in1028.8 mb - 0.00 in0.0 mm 0.01 in0.3 mm
10:40 AM 37.8°F3.2°C 10.5°F-11.9°C 32% 1.2 mph ESE1.9 kmh ESE 2.3 mph3.7 kmh 30.38 in1028.8 mb - 0.00 in0.0 mm 0.01 in0.3 mm
10:45 AM 37.8°F3.2°C 11.2°F-11.6°C 33% 1.2 mph SSE1.9 kmh SSE 2.3 mph3.7 kmh 30.38 in1028.8 mb - 0.00 in0.0 mm 0.01 in0.3 mm
10:50 AM 37.8°F3.2°C 11.2°F-11.6°C 33% 2.3 mph ESE3.7 kmh ESE 4.6 mph7.4 kmh 30.38 in1028.8 mb - 0.00 in0.0 mm 0.01 in0.3 mm
10:55 AM 37.9°F3.3°C 12.7°F-10.7°C 35% 2.3 mph SE3.7 kmh SE 4.6 mph7.4 kmh 30.38 in1028.8 mb - 0.00 in0.0 mm 0.01 in0.3 mm
11:00 AM 37.9°F3.3°C 13.9°F-10.1°C 37% 3.5 mph ESE5.6 kmh ESE 4.6 mph7.4 kmh 30.38 in1028.8 mb - 0.00 in0.0 mm 0.01 in0.3 mm
11:10 AM 37.8°F3.2°C 17.8°F-7.9°C 44% 4.6 mph SE7.4 kmh SE 9.2 mph14.8 kmh 30.37 in1028.4 mb - 0.00 in0.0 mm 0.01 in0.3 mm
11:15 AM 37.8°F3.2°C 20.3°F-6.5°C 49% 4.6 mph SSE7.4 kmh SSE 6.9 mph11.1 kmh 30.37 in1028.4 mb - 0.00 in0.0 mm 0.01 in0.3 mm
11:20 AM 37.8°F3.2°C 21.2°F-6.0°C 51% 4.6 mph ESE7.4 kmh ESE 6.9 mph11.1 kmh 30.37 in1028.4 mb - 0.00 in0.0 mm 0.01 in0.3 mm
11:25 AM 37.8°F3.2°C 22.2°F-5.4°C 53% 3.5 mph SSE5.6 kmh SSE 3.5 mph5.6 kmh 30.37 in1028.4 mb - 0.00 in0.0 mm 0.01 in0.3 mm
11:30 AM 37.9°F3.3°C 22.8°F-5.1°C 54% 3.5 mph SE5.6 kmh SE 5.8 mph9.3 kmh 30.37 in1028.4 mb - 0.00 in0.0 mm 0.01 in0.3 mm
11:35 AM 37.9°F3.3°C 23.2°F-4.9°C 55% 3.5 mph ESE5.6 kmh ESE 4.6 mph7.4 kmh 30.37 in1028.4 mb - 0.00 in0.0 mm 0.01 in0.3 mm
11:40 AM 37.9°F3.3°C 24.0°F-4.4°C 57% 4.6 mph SE7.4 kmh SE 6.9 mph11.1 kmh 30.37 in1028.4 mb - 0.00 in0.0 mm 0.01 in0.3 mm
11:45 AM 37.9°F3.3°C 24.9°F-3.9°C 59% 4.6 mph S7.4 kmh S 5.8 mph9.3 kmh 30.37 in1028.4 mb - 0.00 in0.0 mm 0.01 in0.3 mm
11:50 AM 37.9°F3.3°C 25.3°F-3.7°C 60% 4.6 mph ESE7.4 kmh ESE 3.5 mph5.6 kmh 30.38 in1028.8 mb - 0.00 in0.0 mm 0.01 in0.3 mm
11:55 AM 37.8°F3.2°C 25.5°F-3.6°C 61% 3.5 mph SSE5.6 kmh SSE 6.9 mph11.1 kmh 30.38 in1028.8 mb - 0.00 in0.0 mm 0.01 in0.3 mm
12:00 PM 37.9°F3.3°C 25.7°F-3.5°C 61% 3.5 mph ESE5.6 kmh ESE 3.5 mph5.6 kmh 30.38 in1028.8 mb - 0.00 in0.0 mm 0.01 in0.3 mm
12:10 PM 38.0°F3.3°C 25.7°F-3.5°C 61% 3.5 mph SE5.6 kmh SE 5.8 mph9.3 kmh 30.36 in1028.1 mb - 0.01 in0.3 mm 0.02 in0.5 mm
12:15 PM 37.9°F3.3°C 26.1°F-3.3°C 62% 3.5 mph SE5.6 kmh SE 6.9 mph11.1 kmh 30.36 in1028.1 mb - 0.00 in0.0 mm 0.02 in0.5 mm
12:20 PM 38.0°F3.3°C 26.5°F-3.1°C 63% 4.6 mph SSE7.4 kmh SSE 5.8 mph9.3 kmh 30.36 in1028.1 mb - 0.00 in0.0 mm 0.02 in0.5 mm
12:25 PM 37.9°F3.3°C 26.8°F-2.9°C 64% 3.5 mph SSE5.6 kmh SSE 3.5 mph5.6 kmh 30.36 in1028.1 mb - 0.00 in0.0 mm 0.02 in0.5 mm
12:30 PM 38.0°F3.3°C 27.3°F-2.6°C 65% 4.6 mph SSE7.4 kmh SSE 9.2 mph14.8 kmh 30.36 in1028.1 mb - 0.00 in0.0 mm 0.02 in0.5 mm
12:35 PM 37.9°F3.3°C 27.6°F-2.4°C 66% 4.6 mph S7.4 kmh S 3.5 mph5.6 kmh 30.36 in1028.1 mb - 0.00 in0.0 mm 0.02 in0.5 mm
12:40 PM 37.9°F3.3°C 27.6°F-2.4°C 66% 4.6 mph S7.4 kmh S 4.6 mph7.4 kmh 30.36 in1028.1 mb - 0.00 in0.0 mm 0.02 in0.5 mm
12:45 PM 37.9°F3.3°C 27.6°F-2.4°C 66% 3.5 mph SSE5.6 kmh SSE 4.6 mph7.4 kmh 30.36 in1028.1 mb - 0.00 in0.0 mm 0.02 in0.5 mm
12:50 PM 38.0°F3.3°C 28.0°F-2.2°C 67% 4.6 mph SE7.4 kmh SE 4.6 mph7.4 kmh 30.35 in1027.8 mb - 0.00 in0.0 mm 0.02 in0.5 mm
12:55 PM 38.1°F3.4°C 28.1°F-2.2°C 67% 3.5 mph SSW5.6 kmh SSW 6.9 mph11.1 kmh 30.35 in1027.8 mb - 0.00 in0.0 mm 0.02 in0.5 mm
01:00 PM 38.1°F3.4°C 28.5°F-1.9°C 68% 3.5 mph S5.6 kmh S 5.8 mph9.3 kmh 30.35 in1027.8 mb - 0.00 in0.0 mm 0.02 in0.5 mm
01:10 PM 38.3°F3.5°C 28.7°F-1.8°C 68% 3.5 mph SE5.6 kmh SE 4.6 mph7.4 kmh 30.36 in1028.1 mb - 0.00 in0.0 mm 0.02 in0.5 mm
01:15 PM 38.3°F3.5°C 28.7°F-1.8°C 68% 3.5 mph SSE5.6 kmh SSE 4.6 mph7.4 kmh 30.36 in1028.1 mb - 0.00 in0.0 mm 0.02 in0.5 mm
01:20 PM 38.5°F3.6°C 28.8°F-1.8°C 68% 3.5 mph SE5.6 kmh SE 2.3 mph3.7 kmh 30.36 in1028.1 mb - 0.00 in0.0 mm 0.02 in0.5 mm
01:25 PM 38.7°F3.7°C 29.0°F-1.7°C 68% 2.3 mph SE3.7 kmh SE 3.5 mph5.6 kmh 30.36 in1028.1 mb - 0.00 in0.0 mm 0.02 in0.5 mm
01:30 PM 38.7°F3.7°C 28.6°F-1.9°C 67% 2.3 mph S3.7 kmh S 4.6 mph7.4 kmh 30.36 in1028.1 mb - 0.01 in0.3 mm 0.03 in0.8 mm
01:35 PM 38.7°F3.7°C 29.4°F-1.4°C 69% 3.5 mph SE5.6 kmh SE 8.1 mph13.0 kmh 30.36 in1028.1 mb - 0.00 in0.0 mm 0.03 in0.8 mm
01:40 PM 38.8°F3.8°C 29.9°F-1.2°C 70% 4.6 mph S7.4 kmh S 3.5 mph5.6 kmh 30.36 in1028.1 mb - 0.00 in0.0 mm 0.03 in0.8 mm
01:45 PM 38.8°F3.8°C 30.2°F-1.0°C 71% 3.5 mph SE5.6 kmh SE 4.6 mph7.4 kmh 30.36 in1028.1 mb - 0.00 in0.0 mm 0.03 in0.8 mm
01:50 PM 38.8°F3.8°C 30.6°F-0.8°C 72% 3.5 mph S5.6 kmh S 4.6 mph7.4 kmh 30.35 in1027.8 mb - 0.00 in0.0 mm 0.03 in0.8 mm
01:55 PM 39.0°F3.9°C 31.1°F-0.5°C 73% 4.6 mph SE7.4 kmh SE 4.6 mph7.4 kmh 30.35 in1027.8 mb - 0.00 in0.0 mm 0.03 in0.8 mm
02:00 PM 38.9°F3.8°C 31.3°F-0.4°C 74% 4.6 mph SSE7.4 kmh SSE 4.6 mph7.4 kmh 30.35 in1027.8 mb - 0.00 in0.0 mm 0.03 in0.8 mm
02:10 PM 39.1°F3.9°C 31.5°F-0.3°C 74% 3.5 mph ESE5.6 kmh ESE 5.8 mph9.3 kmh 30.34 in1027.4 mb - 0.00 in0.0 mm 0.03 in0.8 mm
02:15 PM 39.2°F4.0°C 31.6°F-0.2°C 74% 4.6 mph SE7.4 kmh SE 6.9 mph11.1 kmh 30.34 in1027.4 mb - 0.00 in0.0 mm 0.03 in0.8 mm
02:20 PM 39.2°F4.0°C 31.9°F-0.1°C 75% 4.6 mph ESE7.4 kmh ESE 4.6 mph7.4 kmh 30.34 in1027.4 mb - 0.00 in0.0 mm 0.03 in0.8 mm
02:25 PM 39.2°F4.0°C 31.9°F-0.1°C 75% 3.5 mph ESE5.6 kmh ESE 3.5 mph5.6 kmh 30.34 in1027.4 mb - 0.00 in0.0 mm 0.03 in0.8 mm
02:30 PM 39.3°F4.1°C 32.4°F0.2°C 76% 3.5 mph S5.6 kmh S 6.9 mph11.1 kmh 30.35 in1027.8 mb - 0.00 in0.0 mm 0.03 in0.8 mm
02:35 PM 39.4°F4.1°C 32.8°F0.4°C 77% 4.6 mph SSE7.4 kmh SSE 6.9 mph11.1 kmh 30.35 in1027.8 mb - 0.00 in0.0 mm 0.03 in0.8 mm
02:40 PM 39.3°F4.1°C 33.0°F0.6°C 78% 4.6 mph S7.4 kmh S 6.9 mph11.1 kmh 30.35 in1027.8 mb - 0.00 in0.0 mm 0.03 in0.8 mm
02:45 PM 39.2°F4.0°C 33.5°F0.8°C 80% 6.9 mph SE11.1 kmh SE 8.1 mph13.0 kmh 30.35 in1027.8 mb - 0.00 in0.0 mm 0.03 in0.8 mm
02:50 PM 39.3°F4.1°C 33.6°F0.9°C 80% 6.9 mph SE11.1 kmh SE 4.6 mph7.4 kmh 30.35 in1027.8 mb - 0.00 in0.0 mm 0.03 in0.8 mm
02:55 PM 39.2°F4.0°C 33.5°F0.8°C 80% 5.8 mph S9.3 kmh S 8.1 mph13.0 kmh 30.35 in1027.8 mb - 0.00 in0.0 mm 0.03 in0.8 mm
03:00 PM 39.2°F4.0°C 33.5°F0.8°C 80% 5.8 mph S9.3 kmh S 13.8 mph22.2 kmh 30.35 in1027.8 mb - 0.00 in0.0 mm 0.03 in0.8 mm
03:10 PM 39.0°F3.9°C 33.4°F0.8°C 80% 6.9 mph S11.1 kmh S 6.9 mph11.1 kmh 30.36 in1028.1 mb - 0.00 in0.0 mm 0.03 in0.8 mm
03:15 PM 39.0°F3.9°C 33.4°F0.8°C 80% 5.8 mph SSE9.3 kmh SSE 8.1 mph13.0 kmh 30.36 in1028.1 mb - 0.00 in0.0 mm 0.03 in0.8 mm
03:20 PM 39.0°F3.9°C 33.4°F0.8°C 80% 5.8 mph SE9.3 kmh SE 5.8 mph9.3 kmh 30.36 in1028.1 mb - 0.00 in0.0 mm 0.03 in0.8 mm
03:25 PM 38.8°F3.8°C 33.2°F0.7°C 80% 5.8 mph SSE9.3 kmh SSE 6.9 mph11.1 kmh 30.36 in1028.1 mb - 0.00 in0.0 mm 0.03 in0.8 mm
03:30 PM 38.8°F3.8°C 33.2°F0.7°C 80% 5.8 mph SSE9.3 kmh SSE 4.6 mph7.4 kmh 30.37 in1028.4 mb - 0.00 in0.0 mm 0.03 in0.8 mm
03:35 PM 38.8°F3.8°C 33.2°F0.7°C 80% 4.6 mph SE7.4 kmh SE 5.8 mph9.3 kmh 30.37 in1028.4 mb - 0.00 in0.0 mm 0.03 in0.8 mm
03:40 PM 38.8°F3.8°C 33.1°F0.6°C 80% 4.6 mph SE7.4 kmh SE 5.8 mph9.3 kmh 30.37 in1028.4 mb - 0.00 in0.0 mm 0.03 in0.8 mm
03:45 PM 38.7°F3.7°C 33.0°F0.6°C 80% 4.6 mph SE7.4 kmh SE 5.8 mph9.3 kmh 30.37 in1028.4 mb - 0.00 in0.0 mm 0.03 in0.8 mm
03:50 PM 38.7°F3.7°C 33.0°F0.6°C 80% 4.6 mph SE7.4 kmh SE 4.6 mph7.4 kmh 30.37 in1028.4 mb - 0.00 in0.0 mm 0.03 in0.8 mm
03:55 PM 38.7°F3.7°C 33.0°F0.6°C 80% 4.6 mph SE7.4 kmh SE 5.8 mph9.3 kmh 30.37 in1028.4 mb - 0.00 in0.0 mm 0.03 in0.8 mm
04:00 PM 38.7°F3.7°C 33.0°F0.6°C 80% 4.6 mph SE7.4 kmh SE 5.8 mph9.3 kmh 30.37 in1028.4 mb - 0.00 in0.0 mm 0.03 in0.8 mm
04:10 PM 38.6°F3.7°C 32.9°F0.5°C 80% 4.6 mph SE7.4 kmh SE 6.9 mph11.1 kmh 30.38 in1028.8 mb - 0.00 in0.0 mm 0.03 in0.8 mm
04:15 PM 38.5°F3.6°C 32.8°F0.4°C 80% 5.8 mph SE9.3 kmh SE 5.8 mph9.3 kmh 30.38 in1028.8 mb - 0.00 in0.0 mm 0.03 in0.8 mm
04:20 PM 38.3°F3.5°C 32.7°F0.4°C 80% 5.8 mph SSE9.3 kmh SSE 5.8 mph9.3 kmh 30.38 in1028.8 mb - 0.00 in0.0 mm 0.03 in0.8 mm
04:25 PM 38.3°F3.5°C 32.7°F0.4°C 80% 5.8 mph S9.3 kmh S 6.9 mph11.1 kmh 30.38 in1028.8 mb - 0.00 in0.0 mm 0.03 in0.8 mm
04:30 PM 38.3°F3.5°C 32.7°F0.4°C 80% 5.8 mph SE9.3 kmh SE 6.9 mph11.1 kmh 30.38 in1028.8 mb - 0.00 in0.0 mm 0.03 in0.8 mm
04:35 PM 38.3°F3.5°C 32.7°F0.4°C 80% 4.6 mph SSE7.4 kmh SSE 8.1 mph13.0 kmh 30.38 in1028.8 mb - 0.00 in0.0 mm 0.03 in0.8 mm
04:40 PM 38.1°F3.4°C 32.5°F0.3°C 80% 4.6 mph SSE7.4 kmh SSE 5.8 mph9.3 kmh 30.38 in1028.8 mb - 0.00 in0.0 mm 0.03 in0.8 mm
04:45 PM 38.1°F3.4°C 32.5°F0.3°C 80% 4.6 mph SE7.4 kmh SE 6.9 mph11.1 kmh 30.38 in1028.8 mb - 0.00 in0.0 mm 0.03 in0.8 mm
04:50 PM 38.1°F3.4°C 32.4°F0.2°C 80% 5.8 mph SE9.3 kmh SE 6.9 mph11.1 kmh 30.37 in1028.4 mb - 0.00 in0.0 mm 0.03 in0.8 mm
04:55 PM 37.9°F3.3°C 32.3°F0.2°C 80% 5.8 mph SE9.3 kmh SE 5.8 mph9.3 kmh 30.37 in1028.4 mb - 0.00 in0.0 mm 0.03 in0.8 mm
05:00 PM 37.9°F3.3°C 32.3°F0.2°C 80% 5.8 mph SE9.3 kmh SE 5.8 mph9.3 kmh 30.37 in1028.4 mb - 0.00 in0.0 mm 0.03 in0.8 mm
05:10 PM 37.9°F3.3°C 32.3°F0.2°C 80% 5.8 mph SE9.3 kmh SE 9.2 mph14.8 kmh 30.38 in1028.8 mb - 0.00 in0.0 mm 0.03 in0.8 mm
05:15 PM 37.8°F3.2°C 32.1°F0.1°C 80% 5.8 mph SE9.3 kmh SE 9.2 mph14.8 kmh 30.38 in1028.8 mb - 0.00 in0.0 mm 0.03 in0.8 mm
05:20 PM 37.8°F3.2°C 32.1°F0.1°C 80% 5.8 mph SE9.3 kmh SE 4.6 mph7.4 kmh 30.38 in1028.8 mb - 0.00 in0.0 mm 0.03 in0.8 mm
05:25 PM 37.6°F3.1°C 32.0°F0.0°C 80% 5.8 mph SE9.3 kmh SE 6.9 mph11.1 kmh 30.38 in1028.8 mb - 0.00 in0.0 mm 0.03 in0.8 mm
05:30 PM 37.6°F3.1°C 32.0°F0.0°C 80% 5.8 mph SSE9.3 kmh SSE 8.1 mph13.0 kmh 30.38 in1028.8 mb - 0.00 in0.0 mm 0.03 in0.8 mm
05:35 PM 37.6°F3.1°C 32.0°F0.0°C 80% 5.8 mph SE9.3 kmh SE 4.6 mph7.4 kmh 30.38 in1028.8 mb - 0.00 in0.0 mm 0.03 in0.8 mm
05:40 PM 37.6°F3.1°C 32.0°F0.0°C 80% 5.8 mph W9.3 kmh W 11.5 mph18.5 kmh 30.38 in1028.8 mb - 0.00 in0.0 mm 0.03 in0.8 mm
05:45 PM 37.4°F3.0°C 31.8°F-0.1°C 80% 5.8 mph SSE9.3 kmh SSE 9.2 mph14.8 kmh 30.38 in1028.8 mb - 0.00 in0.0 mm 0.03 in0.8 mm
05:50 PM 37.4°F3.0°C 31.8°F-0.1°C 80% 6.9 mph SE11.1 kmh SE 9.2 mph14.8 kmh 30.38 in1028.8 mb - 0.00 in0.0 mm 0.03 in0.8 mm
05:55 PM 37.2°F2.9°C 31.6°F-0.2°C 80% 6.9 mph S11.1 kmh S 8.1 mph13.0 kmh 30.38 in1028.8 mb - 0.00 in0.0 mm 0.03 in0.8 mm
06:00 PM 37.2°F2.9°C 31.6°F-0.2°C 80% 6.9 mph SE11.1 kmh SE 9.2 mph14.8 kmh 30.38 in1028.8 mb - 0.00 in0.0 mm 0.03 in0.8 mm
06:10 PM 37.2°F2.9°C 31.6°F-0.2°C 80% 5.8 mph S9.3 kmh S 5.8 mph9.3 kmh 30.38 in1028.8 mb - 0.00 in0.0 mm 0.03 in0.8 mm
06:15 PM 37.0°F2.8°C 31.4°F-0.3°C 80% 4.6 mph SSE7.4 kmh SSE 5.8 mph9.3 kmh 30.38 in1028.8 mb - 0.00 in0.0 mm 0.03 in0.8 mm
06:20 PM 36.9°F2.7°C 31.3°F-0.4°C 80% 4.6 mph SW7.4 kmh SW 4.6 mph7.4 kmh 30.38 in1028.8 mb - 0.00 in0.0 mm 0.03 in0.8 mm
06:25 PM 36.9°F2.7°C 31.3°F-0.4°C 80% 4.6 mph SSW7.4 kmh SSW 4.6 mph7.4 kmh 30.38 in1028.8 mb - 0.00 in0.0 mm 0.03 in0.8 mm
06:30 PM 36.9°F2.7°C 31.3°F-0.4°C 80% 4.6 mph SE7.4 kmh SE 6.9 mph11.1 kmh 30.39 in1029.1 mb - 0.00 in0.0 mm 0.03 in0.8 mm
06:35 PM 36.7°F2.6°C 31.1°F-0.5°C 80% 5.8 mph S9.3 kmh S 6.9 mph11.1 kmh 30.39 in1029.1 mb - 0.00 in0.0 mm 0.03 in0.8 mm
06:40 PM 36.7°F2.6°C 31.1°F-0.5°C 80% 6.9 mph S11.1 kmh S 6.9 mph11.1 kmh 30.39 in1029.1 mb - 0.00 in0.0 mm 0.03 in0.8 mm
06:45 PM 36.7°F2.6°C 31.1°F-0.5°C 80% 5.8 mph SE9.3 kmh SE 8.1 mph13.0 kmh 30.39 in1029.1 mb - 0.00 in0.0 mm 0.03 in0.8 mm
06:50 PM 36.7°F2.6°C 31.1°F-0.5°C 80% 5.8 mph SE9.3 kmh SE 8.1 mph13.0 kmh 30.39 in1029.1 mb - 0.00 in0.0 mm 0.03 in0.8 mm
06:55 PM 36.5°F2.5°C 30.9°F-0.6°C 80% 6.9 mph SSE11.1 kmh SSE 6.9 mph11.1 kmh 30.39 in1029.1 mb - 0.00 in0.0 mm 0.03 in0.8 mm
07:00 PM 36.5°F2.5°C 30.9°F-0.6°C 80% 5.8 mph SSE9.3 kmh SSE 11.5 mph18.5 kmh 30.39 in1029.1 mb - 0.00 in0.0 mm 0.03 in0.8 mm
07:10 PM 36.3°F2.4°C 30.7°F-0.7°C 80% 8.1 mph S13.0 kmh S 11.5 mph18.5 kmh 30.39 in1029.1 mb - 0.00 in0.0 mm 0.03 in0.8 mm
07:15 PM 36.1°F2.3°C 30.6°F-0.8°C 80% 8.1 mph SSE13.0 kmh SSE 6.9 mph11.1 kmh 30.39 in1029.1 mb - 0.00 in0.0 mm 0.03 in0.8 mm
07:20 PM 36.1°F2.3°C 30.6°F-0.8°C 80% 6.9 mph SSE11.1 kmh SSE 10.4 mph16.7 kmh 30.39 in1029.1 mb - 0.00 in0.0 mm 0.03 in0.8 mm
07:25 PM 36.1°F2.3°C 30.6°F-0.8°C 80% 6.9 mph S11.1 kmh S 9.2 mph14.8 kmh 30.39 in1029.1 mb - 0.00 in0.0 mm 0.03 in0.8 mm
07:30 PM 36.0°F2.2°C 30.4°F-0.9°C 80% 6.9 mph SE11.1 kmh SE 10.4 mph16.7 kmh 30.39 in1029.1 mb - 0.00 in0.0 mm 0.03 in0.8 mm
07:35 PM 36.0°F2.2°C 30.4°F-0.9°C 80% 8.1 mph SSE13.0 kmh SSE 11.5 mph18.5 kmh 30.39 in1029.1 mb - 0.00 in0.0 mm 0.03 in0.8 mm
07:40 PM 35.8°F2.1°C 30.2°F-1.0°C 80% 8.1 mph SE13.0 kmh SE 9.2 mph14.8 kmh 30.39 in1029.1 mb - 0.00 in0.0 mm 0.03 in0.8 mm
07:45 PM 35.8°F2.1°C 30.2°F-1.0°C 80% 8.1 mph ESE13.0 kmh ESE 8.1 mph13.0 kmh 30.39 in1029.1 mb - 0.00 in0.0 mm 0.03 in0.8 mm
07:50 PM 35.8°F2.1°C 30.2°F-1.0°C 80% 8.1 mph SSE13.0 kmh SSE 11.5 mph18.5 kmh 30.39 in1029.1 mb - 0.00 in0.0 mm 0.03 in0.8 mm
07:55 PM 35.8°F2.1°C 30.2°F-1.0°C 80% 8.1 mph SSE13.0 kmh SSE 9.2 mph14.8 kmh 30.39 in1029.1 mb - 0.00 in0.0 mm 0.03 in0.8 mm
08:00 PM 35.6°F2.0°C 29.7°F-1.3°C 79% 8.1 mph SSE13.0 kmh SSE 11.5 mph18.5 kmh 30.39 in1029.1 mb - 0.00 in0.0 mm 0.03 in0.8 mm
08:10 PM 35.5°F1.9°C 30.0°F-1.1°C 80% 6.9 mph S11.1 kmh S 11.5 mph18.5 kmh 30.39 in1029.1 mb - 0.00 in0.0 mm 0.03 in0.8 mm
08:15 PM 35.4°F1.9°C 29.9°F-1.2°C 80% 6.9 mph SSE11.1 kmh SSE 8.1 mph13.0 kmh 30.39 in1029.1 mb - 0.00 in0.0 mm 0.03 in0.8 mm
08:20 PM 35.4°F1.9°C 29.9°F-1.2°C 80% 8.1 mph SSE13.0 kmh SSE 13.8 mph22.2 kmh 30.39 in1029.1 mb - 0.00 in0.0 mm 0.03 in0.8 mm
08:25 PM 35.4°F1.9°C 29.9°F-1.2°C 80% 8.1 mph S13.0 kmh S 10.4 mph16.7 kmh 30.39 in1029.1 mb - 0.00 in0.0 mm 0.03 in0.8 mm
08:30 PM 35.4°F1.9°C 29.8°F-1.2°C 80% 8.1 mph SE13.0 kmh SE 11.5 mph18.5 kmh 30.40 in1029.5 mb - 0.00 in0.0 mm 0.03 in0.8 mm
08:35 PM 35.2°F1.8°C 29.7°F-1.3°C 80% 6.9 mph SE11.1 kmh SE 5.8 mph9.3 kmh 30.40 in1029.5 mb - 0.00 in0.0 mm 0.03 in0.8 mm
08:40 PM 35.2°F1.8°C 29.7°F-1.3°C 80% 6.9 mph S11.1 kmh S 6.9 mph11.1 kmh 30.40 in1029.5 mb - 0.00 in0.0 mm 0.03 in0.8 mm
08:45 PM 35.1°F1.7°C 29.5°F-1.4°C 80% 5.8 mph S9.3 kmh S 5.8 mph9.3 kmh 30.40 in1029.5 mb - 0.00 in0.0 mm 0.03 in0.8 mm
08:50 PM 35.1°F1.7°C 29.5°F-1.4°C 80% 5.8 mph SSE9.3 kmh SSE 8.1 mph13.0 kmh 30.40 in1029.5 mb - 0.00 in0.0 mm 0.03 in0.8 mm
08:55 PM 35.1°F1.7°C 29.5°F-1.4°C 80% 5.8 mph SE9.3 kmh SE 8.1 mph13.0 kmh 30.40 in1029.5 mb - 0.00 in0.0 mm 0.03 in0.8 mm
09:00 PM 35.1°F1.7°C 29.5°F-1.4°C 80% 5.8 mph SSE9.3 kmh SSE 6.9 mph11.1 kmh 30.40 in1029.5 mb - 0.00 in0.0 mm 0.03 in0.8 mm
09:10 PM 34.9°F1.6°C 29.3°F-1.5°C 80% 5.8 mph SE9.3 kmh SE 10.4 mph16.7 kmh 30.40 in1029.5 mb - 0.00 in0.0 mm 0.03 in0.8 mm
09:15 PM 34.9°F1.6°C 29.3°F-1.5°C 80% 6.9 mph SE11.1 kmh SE 8.1 mph13.0 kmh 30.40 in1029.5 mb - 0.00 in0.0 mm 0.03 in0.8 mm
09:20 PM 34.8°F1.6°C 29.3°F-1.5°C 80% 5.8 mph SE9.3 kmh SE 8.1 mph13.0 kmh 30.40 in1029.5 mb - 0.00 in0.0 mm 0.03 in0.8 mm
09:25 PM 34.7°F1.5°C 29.2°F-1.6°C 80% 5.8 mph SE9.3 kmh SE 5.8 mph9.3 kmh 30.40 in1029.5 mb - 0.00 in0.0 mm 0.03 in0.8 mm
09:30 PM 34.7°F1.5°C 29.2°F-1.6°C 80% 5.8 mph SE9.3 kmh SE 6.9 mph11.1 kmh 30.40 in1029.5 mb - 0.00 in0.0 mm 0.03 in0.8 mm
09:35 PM 34.7°F1.5°C 29.5°F-1.4°C 81% 4.6 mph SE7.4 kmh SE 4.6 mph7.4 kmh 30.40 in1029.5 mb - 0.00 in0.0 mm 0.03 in0.8 mm
09:40 PM 34.7°F1.5°C 29.5°F-1.4°C 81% 4.6 mph SSE7.4 kmh SSE 8.1 mph13.0 kmh 30.40 in1029.5 mb - 0.00 in0.0 mm 0.03 in0.8 mm
09:45 PM 34.7°F1.5°C 29.5°F-1.4°C 81% 5.8 mph S9.3 kmh S 8.1 mph13.0 kmh 30.40 in1029.5 mb - 0.00 in0.0 mm 0.03 in0.8 mm
09:50 PM 34.7°F1.5°C 29.5°F-1.4°C 81% 5.8 mph SE9.3 kmh SE 9.2 mph14.8 kmh 30.39 in1029.1 mb - 0.00 in0.0 mm 0.03 in0.8 mm
09:55 PM 34.7°F1.5°C 29.5°F-1.4°C 81% 6.9 mph SE11.1 kmh SE 5.8 mph9.3 kmh 30.39 in1029.1 mb - 0.00 in0.0 mm 0.03 in0.8 mm
10:00 PM 34.7°F1.5°C 29.4°F-1.4°C 81% 5.8 mph SE9.3 kmh SE 8.1 mph13.0 kmh 30.39 in1029.1 mb - 0.00 in0.0 mm 0.03 in0.8 mm
10:10 PM 34.5°F1.4°C 29.0°F-1.7°C 80% 5.8 mph SE9.3 kmh SE 6.9 mph11.1 kmh 30.40 in1029.5 mb - 0.00 in0.0 mm 0.03 in0.8 mm
10:15 PM 34.3°F1.3°C 28.8°F-1.8°C 80% 5.8 mph S9.3 kmh S 8.1 mph13.0 kmh 30.40 in1029.5 mb - 0.00 in0.0 mm 0.03 in0.8 mm
10:20 PM 34.3°F1.3°C 28.8°F-1.8°C 80% 6.9 mph SE11.1 kmh SE 9.2 mph14.8 kmh 30.40 in1029.5 mb - 0.00 in0.0 mm 0.03 in0.8 mm
10:25 PM 34.3°F1.3°C 28.8°F-1.8°C 80% 6.9 mph SSE11.1 kmh SSE 8.1 mph13.0 kmh 30.40 in1029.5 mb - 0.00 in0.0 mm 0.03 in0.8 mm
10:30 PM 34.3°F1.3°C 28.8°F-1.8°C 80% 6.9 mph ESE11.1 kmh ESE 10.4 mph16.7 kmh 30.40 in1029.5 mb - 0.00 in0.0 mm 0.03 in0.8 mm
10:35 PM 34.3°F1.3°C 28.8°F-1.8°C 80% 6.9 mph SE11.1 kmh SE 5.8 mph9.3 kmh 30.40 in1029.5 mb - 0.00 in0.0 mm 0.03 in0.8 mm
10:40 PM 34.3°F1.3°C 28.8°F-1.8°C 80% 6.9 mph E11.1 kmh E 8.1 mph13.0 kmh 30.40 in1029.5 mb - 0.00 in0.0 mm 0.03 in0.8 mm
10:45 PM 34.2°F1.2°C 28.6°F-1.9°C 80% 6.9 mph SSE11.1 kmh SSE 6.9 mph11.1 kmh 30.40 in1029.5 mb - 0.00 in0.0 mm 0.03 in0.8 mm
10:50 PM 34.2°F1.2°C 28.6°F-1.9°C 80% 6.9 mph SE11.1 kmh SE 10.4 mph16.7 kmh 30.40 in1029.5 mb - 0.00 in0.0 mm 0.03 in0.8 mm
10:55 PM 34.2°F1.2°C 28.6°F-1.9°C 80% 6.9 mph SE11.1 kmh SE 5.8 mph9.3 kmh 30.40 in1029.5 mb - 0.00 in0.0 mm 0.03 in0.8 mm
11:00 PM 34.0°F1.1°C 28.5°F-1.9°C 80% 6.9 mph SE11.1 kmh SE 9.2 mph14.8 kmh 30.40 in1029.5 mb - 0.00 in0.0 mm 0.03 in0.8 mm
11:10 PM 33.9°F1.1°C 28.4°F-2.0°C 80% 6.9 mph S11.1 kmh S 11.5 mph18.5 kmh 30.40 in1029.5 mb - 0.00 in0.0 mm 0.03 in0.8 mm
11:15 PM 33.8°F1.0°C 28.3°F-2.1°C 80% 6.9 mph SSE11.1 kmh SSE 11.5 mph18.5 kmh 30.40 in1029.5 mb - 0.00 in0.0 mm 0.03 in0.8 mm
11:20 PM 33.6°F0.9°C 28.1°F-2.2°C 80% 6.9 mph SE11.1 kmh SE 9.2 mph14.8 kmh 30.40 in1029.5 mb - 0.00 in0.0 mm 0.03 in0.8 mm
11:25 PM 33.6°F0.9°C 28.1°F-2.2°C 80% 6.9 mph SE11.1 kmh SE 6.9 mph11.1 kmh 30.40 in1029.5 mb - 0.00 in0.0 mm 0.03 in0.8 mm
11:30 PM 33.4°F0.8°C 27.9°F-2.3°C 80% 5.8 mph SE9.3 kmh SE 8.1 mph13.0 kmh 30.39 in1029.1 mb - 0.00 in0.0 mm 0.03 in0.8 mm
11:35 PM 33.4°F0.8°C 27.9°F-2.3°C 80% 5.8 mph SSE9.3 kmh SSE 8.1 mph13.0 kmh 30.39 in1029.1 mb - 0.00 in0.0 mm 0.03 in0.8 mm
11:40 PM 33.3°F0.7°C 27.8°F-2.3°C 80% 5.8 mph SE9.3 kmh SE 6.9 mph11.1 kmh 30.39 in1029.1 mb - 0.00 in0.0 mm 0.03 in0.8 mm
11:45 PM 33.3°F0.7°C 27.8°F-2.3°C 80% 5.8 mph SE9.3 kmh SE 10.4 mph16.7 kmh 30.39 in1029.1 mb - 0.00 in0.0 mm 0.03 in0.8 mm
11:50 PM 33.3°F0.7°C 27.8°F-2.3°C 80% 5.8 mph SSE9.3 kmh SSE 9.2 mph14.8 kmh 30.40 in1029.5 mb - 0.00 in0.0 mm 0.03 in0.8 mm
11:55 PM 33.1°F0.6°C 27.6°F-2.4°C 80% 5.8 mph S9.3 kmh S 9.2 mph14.8 kmh 30.40 in1029.5 mb - 0.00 in0.0 mm 0.03 in0.8 mm